sensor_id;sensor_type;location;lat;lon;timestamp;P1;durP1;ratioP1;P2;durP2;ratioP2
22490;SDS011;11412;50.802;4.350;2022-09-11T00:00:41;11.20;;;8.90;;
22490;SDS011;11412;50.802;4.350;2022-09-11T00:03:07;13.77;;;10.40;;
22490;SDS011;11412;50.802;4.350;2022-09-11T00:05:39;9.27;;;8.38;;
22490;SDS011;11412;50.802;4.350;2022-09-11T00:08:06;11.38;;;9.15;;
22490;SDS011;11412;50.802;4.350;2022-09-11T00:10:37;14.20;;;9.93;;
22490;SDS011;11412;50.802;4.350;2022-09-11T00:13:11;12.57;;;9.07;;
22490;SDS011;11412;50.802;4.350;2022-09-11T00:18:07;11.73;;;8.75;;
22490;SDS011;11412;50.802;4.350;2022-09-11T00:20:39;10.68;;;8.75;;
22490;SDS011;11412;50.802;4.350;2022-09-11T00:23:13;11.85;;;9.10;;
22490;SDS011;11412;50.802;4.350;2022-09-11T00:25:42;9.88;;;8.48;;
22490;SDS011;11412;50.802;4.350;2022-09-11T00:28:11;10.30;;;9.30;;
22490;SDS011;11412;50.802;4.350;2022-09-11T00:30:40;14.20;;;9.32;;
22490;SDS011;11412;50.802;4.350;2022-09-11T00:33:12;13.27;;;9.73;;
22490;SDS011;11412;50.802;4.350;2022-09-11T00:35:40;11.32;;;9.32;;
22490;SDS011;11412;50.802;4.350;2022-09-11T00:38:07;12.35;;;9.20;;
22490;SDS011;11412;50.802;4.350;2022-09-11T00:40:42;16.83;;;10.38;;
22490;SDS011;11412;50.802;4.350;2022-09-11T00:43:10;11.65;;;8.95;;
22490;SDS011;11412;50.802;4.350;2022-09-11T00:45:42;13.35;;;10.63;;
22490;SDS011;11412;50.802;4.350;2022-09-11T00:48:10;17.35;;;10.60;;
22490;SDS011;11412;50.802;4.350;2022-09-11T00:50:39;16.77;;;10.48;;
22490;SDS011;11412;50.802;4.350;2022-09-11T00:53:08;13.60;;;10.73;;
22490;SDS011;11412;50.802;4.350;2022-09-11T00:55:40;13.85;;;10.63;;
22490;SDS011;11412;50.802;4.350;2022-09-11T00:58:14;15.45;;;10.55;;
22490;SDS011;11412;50.802;4.350;2022-09-11T01:00:42;16.58;;;10.77;;
22490;SDS011;11412;50.802;4.350;2022-09-11T01:03:09;13.35;;;11.35;;
22490;SDS011;11412;50.802;4.350;2022-09-11T01:05:35;12.80;;;10.85;;
22490;SDS011;11412;50.802;4.350;2022-09-11T01:08:05;13.07;;;10.45;;
22490;SDS011;11412;50.802;4.350;2022-09-11T01:16:29;13.50;;;11.35;;
22490;SDS011;11412;50.802;4.350;2022-09-11T01:22:06;13.05;;;9.82;;
22490;SDS011;11412;50.802;4.350;2022-09-11T01:30:19;15.40;;;11.68;;
22490;SDS011;11412;50.802;4.350;2022-09-11T01:32:59;16.48;;;11.43;;
22490;SDS011;11412;50.802;4.350;2022-09-11T01:41:05;12.73;;;10.40;;
22490;SDS011;11412;50.802;4.350;2022-09-11T01:43:37;14.32;;;10.65;;
22490;SDS011;11412;50.802;4.350;2022-09-11T01:46:07;13.77;;;10.55;;
22490;SDS011;11412;50.802;4.350;2022-09-11T01:48:40;13.23;;;11.05;;
22490;SDS011;11412;50.802;4.350;2022-09-11T01:51:14;13.23;;;11.82;;
22490;SDS011;11412;50.802;4.350;2022-09-11T01:53:45;15.80;;;11.63;;
22490;SDS011;11412;50.802;4.350;2022-09-11T01:56:20;12.82;;;10.63;;
22490;SDS011;11412;50.802;4.350;2022-09-11T01:58:55;12.88;;;11.00;;
22490;SDS011;11412;50.802;4.350;2022-09-11T02:01:29;14.02;;;11.15;;
22490;SDS011;11412;50.802;4.350;2022-09-11T02:04:02;13.40;;;11.35;;
22490;SDS011;11412;50.802;4.350;2022-09-11T02:07:01;13.15;;;11.75;;
22490;SDS011;11412;50.802;4.350;2022-09-11T02:09:30;19.85;;;11.75;;
22490;SDS011;11412;50.802;4.350;2022-09-11T02:12:01;15.60;;;11.48;;
22490;SDS011;11412;50.802;4.350;2022-09-11T02:17:14;16.10;;;12.77;;
22490;SDS011;11412;50.802;4.350;2022-09-11T02:20:08;17.88;;;10.98;;
22490;SDS011;11412;50.802;4.350;2022-09-11T02:22:35;15.00;;;11.35;;
22490;SDS011;11412;50.802;4.350;2022-09-11T02:25:01;15.82;;;11.65;;
22490;SDS011;11412;50.802;4.350;2022-09-11T02:27:28;15.55;;;12.38;;
22490;SDS011;11412;50.802;4.350;2022-09-11T02:29:56;16.48;;;12.02;;
22490;SDS011;11412;50.802;4.350;2022-09-11T02:32:23;14.80;;;11.63;;
22490;SDS011;11412;50.802;4.350;2022-09-11T02:34:51;12.95;;;10.70;;
22490;SDS011;11412;50.802;4.350;2022-09-11T02:37:32;11.73;;;10.48;;
22490;SDS011;11412;50.802;4.350;2022-09-11T02:40:14;11.82;;;10.60;;
22490;SDS011;11412;50.802;4.350;2022-09-11T02:42:51;11.63;;;10.43;;
22490;SDS011;11412;50.802;4.350;2022-09-11T02:50:58;14.02;;;10.13;;
22490;SDS011;11412;50.802;4.350;2022-09-11T02:59:39;15.15;;;11.07;;
22490;SDS011;11412;50.802;4.350;2022-09-11T03:02:11;12.35;;;10.50;;
22490;SDS011;11412;50.802;4.350;2022-09-11T03:04:38;14.18;;;11.20;;
22490;SDS011;11412;50.802;4.350;2022-09-11T03:07:04;15.55;;;12.02;;
22490;SDS011;11412;50.802;4.350;2022-09-11T03:09:30;14.75;;;11.18;;
22490;SDS011;11412;50.802;4.350;2022-09-11T03:11:57;12.82;;;11.25;;
22490;SDS011;11412;50.802;4.350;2022-09-11T03:14:23;14.32;;;12.25;;
22490;SDS011;11412;50.802;4.350;2022-09-11T03:16:48;12.15;;;10.60;;
22490;SDS011;11412;50.802;4.350;2022-09-11T03:19:14;13.07;;;11.18;;
22490;SDS011;11412;50.802;4.350;2022-09-11T03:21:40;13.38;;;11.20;;
22490;SDS011;11412;50.802;4.350;2022-09-11T03:24:07;12.45;;;11.05;;
22490;SDS011;11412;50.802;4.350;2022-09-11T03:26:34;13.85;;;12.32;;
22490;SDS011;11412;50.802;4.350;2022-09-11T03:29:00;17.42;;;12.32;;
22490;SDS011;11412;50.802;4.350;2022-09-11T03:31:26;15.10;;;12.50;;
22490;SDS011;11412;50.802;4.350;2022-09-11T03:33:52;21.95;;;13.63;;
22490;SDS011;11412;50.802;4.350;2022-09-11T03:36:19;32.05;;;17.45;;
22490;SDS011;11412;50.802;4.350;2022-09-11T03:38:45;33.33;;;18.65;;
22490;SDS011;11412;50.802;4.350;2022-09-11T03:41:12;47.35;;;18.92;;
22490;SDS011;11412;50.802;4.350;2022-09-11T03:43:38;48.92;;;19.38;;
22490;SDS011;11412;50.802;4.350;2022-09-11T03:46:04;34.95;;;18.40;;
22490;SDS011;11412;50.802;4.350;2022-09-11T03:48:30;39.75;;;19.40;;
22490;SDS011;11412;50.802;4.350;2022-09-11T03:50:55;41.05;;;18.45;;
22490;SDS011;11412;50.802;4.350;2022-09-11T03:53:23;37.42;;;19.75;;
22490;SDS011;11412;50.802;4.350;2022-09-11T03:55:49;28.52;;;18.67;;
22490;SDS011;11412;50.802;4.350;2022-09-11T03:58:15;43.60;;;20.67;;
22490;SDS011;11412;50.802;4.350;2022-09-11T04:00:44;31.17;;;19.58;;
22490;SDS011;11412;50.802;4.350;2022-09-11T04:03:11;35.80;;;20.25;;
22490;SDS011;11412;50.802;4.350;2022-09-11T04:05:38;36.30;;;19.35;;
22490;SDS011;11412;50.802;4.350;2022-09-11T04:08:04;27.13;;;18.83;;
22490;SDS011;11412;50.802;4.350;2022-09-11T04:10:33;46.80;;;18.25;;
22490;SDS011;11412;50.802;4.350;2022-09-11T04:12:59;50.70;;;18.55;;
22490;SDS011;11412;50.802;4.350;2022-09-11T04:15:25;56.97;;;19.85;;
22490;SDS011;11412;50.802;4.350;2022-09-11T04:17:51;39.35;;;19.13;;
22490;SDS011;11412;50.802;4.350;2022-09-11T04:20:17;62.92;;;19.48;;
22490;SDS011;11412;50.802;4.350;2022-09-11T04:22:43;111.55;;;18.92;;
22490;SDS011;11412;50.802;4.350;2022-09-11T04:25:08;50.83;;;18.05;;
22490;SDS011;11412;50.802;4.350;2022-09-11T04:27:36;56.95;;;19.75;;
22490;SDS011;11412;50.802;4.350;2022-09-11T04:30:02;56.00;;;18.40;;
22490;SDS011;11412;50.802;4.350;2022-09-11T04:32:28;45.08;;;19.67;;
22490;SDS011;11412;50.802;4.350;2022-09-11T04:34:54;104.60;;;19.98;;
22490;SDS011;11412;50.802;4.350;2022-09-11T04:37:20;72.47;;;18.75;;
22490;SDS011;11412;50.802;4.350;2022-09-11T04:39:46;65.30;;;17.83;;
22490;SDS011;11412;50.802;4.350;2022-09-11T04:42:13;35.13;;;19.85;;
22490;SDS011;11412;50.802;4.350;2022-09-11T04:44:38;27.90;;;18.65;;
22490;SDS011;11412;50.802;4.350;2022-09-11T04:47:04;47.13;;;17.25;;
22490;SDS011;11412;50.802;4.350;2022-09-11T04:49:30;45.63;;;17.25;;
22490;SDS011;11412;50.802;4.350;2022-09-11T04:51:57;54.10;;;16.33;;
22490;SDS011;11412;50.802;4.350;2022-09-11T04:54:26;21.33;;;17.60;;
22490;SDS011;11412;50.802;4.350;2022-09-11T04:56:52;28.50;;;17.45;;
22490;SDS011;11412;50.802;4.350;2022-09-11T04:59:19;34.03;;;17.45;;
22490;SDS011;11412;50.802;4.350;2022-09-11T05:01:46;66.60;;;17.27;;
22490;SDS011;11412;50.802;4.350;2022-09-11T05:04:12;72.88;;;17.48;;
22490;SDS011;11412;50.802;4.350;2022-09-11T05:06:40;44.67;;;18.55;;
22490;SDS011;11412;50.802;4.350;2022-09-11T05:09:08;52.53;;;19.33;;
22490;SDS011;11412;50.802;4.350;2022-09-11T05:11:34;23.52;;;18.60;;
22490;SDS011;11412;50.802;4.350;2022-09-11T05:14:01;34.05;;;18.88;;
22490;SDS011;11412;50.802;4.350;2022-09-11T05:16:27;34.47;;;20.27;;
22490;SDS011;11412;50.802;4.350;2022-09-11T05:18:54;73.30;;;20.88;;
22490;SDS011;11412;50.802;4.350;2022-09-11T05:21:21;55.35;;;21.98;;
22490;SDS011;11412;50.802;4.350;2022-09-11T05:23:49;47.67;;;22.70;;
22490;SDS011;11412;50.802;4.350;2022-09-11T05:26:17;68.97;;;22.30;;
22490;SDS011;11412;50.802;4.350;2022-09-11T05:28:46;48.42;;;21.60;;
22490;SDS011;11412;50.802;4.350;2022-09-11T05:31:17;55.42;;;21.98;;
22490;SDS011;11412;50.802;4.350;2022-09-11T05:33:43;42.17;;;22.23;;
22490;SDS011;11412;50.802;4.350;2022-09-11T05:36:10;110.65;;;25.65;;
22490;SDS011;11412;50.802;4.350;2022-09-11T05:38:37;59.13;;;24.73;;
22490;SDS011;11412;50.802;4.350;2022-09-11T05:41:06;39.33;;;24.23;;
22490;SDS011;11412;50.802;4.350;2022-09-11T05:43:34;43.70;;;25.35;;
22490;SDS011;11412;50.802;4.350;2022-09-11T05:46:00;43.70;;;25.00;;
22490;SDS011;11412;50.802;4.350;2022-09-11T05:48:26;41.75;;;25.40;;
22490;SDS011;11412;50.802;4.350;2022-09-11T05:50:53;58.50;;;26.30;;
22490;SDS011;11412;50.802;4.350;2022-09-11T05:53:21;42.22;;;25.58;;
22490;SDS011;11412;50.802;4.350;2022-09-11T05:55:47;54.50;;;25.25;;
22490;SDS011;11412;50.802;4.350;2022-09-11T05:58:15;88.32;;;25.67;;
22490;SDS011;11412;50.802;4.350;2022-09-11T06:00:42;70.20;;;24.45;;
22490;SDS011;11412;50.802;4.350;2022-09-11T06:03:11;70.97;;;24.58;;
22490;SDS011;11412;50.802;4.350;2022-09-11T06:05:41;79.03;;;25.20;;
22490;SDS011;11412;50.802;4.350;2022-09-11T06:08:07;49.83;;;24.48;;
22490;SDS011;11412;50.802;4.350;2022-09-11T06:10:42;69.38;;;25.98;;
22490;SDS011;11412;50.802;4.350;2022-09-11T06:13:11;43.28;;;25.27;;
22490;SDS011;11412;50.802;4.350;2022-09-11T06:15:45;43.92;;;26.73;;
22490;SDS011;11412;50.802;4.350;2022-09-11T06:18:11;47.78;;;26.60;;
22490;SDS011;11412;50.802;4.350;2022-09-11T06:20:37;101.68;;;26.25;;
22490;SDS011;11412;50.802;4.350;2022-09-11T06:23:03;59.92;;;26.65;;
22490;SDS011;11412;50.802;4.350;2022-09-11T06:25:29;101.15;;;26.58;;
22490;SDS011;11412;50.802;4.350;2022-09-11T06:27:54;67.30;;;25.85;;
22490;SDS011;11412;50.802;4.350;2022-09-11T06:30:20;45.60;;;26.05;;
22490;SDS011;11412;50.802;4.350;2022-09-11T06:32:48;79.65;;;26.20;;
22490;SDS011;11412;50.802;4.350;2022-09-11T06:35:15;54.20;;;26.20;;
22490;SDS011;11412;50.802;4.350;2022-09-11T06:37:40;81.40;;;26.65;;
22490;SDS011;11412;50.802;4.350;2022-09-11T06:40:06;57.58;;;26.02;;
22490;SDS011;11412;50.802;4.350;2022-09-11T06:42:32;46.20;;;25.25;;
22490;SDS011;11412;50.802;4.350;2022-09-11T06:44:58;70.50;;;26.60;;
22490;SDS011;11412;50.802;4.350;2022-09-11T06:47:23;56.30;;;26.13;;
22490;SDS011;11412;50.802;4.350;2022-09-11T06:49:49;77.63;;;26.95;;
22490;SDS011;11412;50.802;4.350;2022-09-11T06:52:15;83.93;;;26.63;;
22490;SDS011;11412;50.802;4.350;2022-09-11T06:54:41;52.75;;;24.25;;
22490;SDS011;11412;50.802;4.350;2022-09-11T06:57:06;41.42;;;24.30;;
22490;SDS011;11412;50.802;4.350;2022-09-11T06:59:32;48.28;;;25.08;;
22490;SDS011;11412;50.802;4.350;2022-09-11T07:01:57;40.63;;;26.13;;
22490;SDS011;11412;50.802;4.350;2022-09-11T07:04:24;38.35;;;27.08;;
22490;SDS011;11412;50.802;4.350;2022-09-11T07:06:50;32.45;;;23.95;;
22490;SDS011;11412;50.802;4.350;2022-09-11T07:09:16;96.63;;;23.25;;
22490;SDS011;11412;50.802;4.350;2022-09-11T07:11:41;102.22;;;23.30;;
22490;SDS011;11412;50.802;4.350;2022-09-11T07:14:09;35.50;;;22.63;;
22490;SDS011;11412;50.802;4.350;2022-09-11T07:16:35;62.70;;;23.50;;
22490;SDS011;11412;50.802;4.350;2022-09-11T07:19:00;59.53;;;21.70;;
22490;SDS011;11412;50.802;4.350;2022-09-11T07:21:28;45.08;;;23.38;;
22490;SDS011;11412;50.802;4.350;2022-09-11T07:23:54;43.22;;;23.17;;
22490;SDS011;11412;50.802;4.350;2022-09-11T07:26:23;37.58;;;22.98;;
22490;SDS011;11412;50.802;4.350;2022-09-11T07:28:51;32.08;;;22.73;;
22490;SDS011;11412;50.802;4.350;2022-09-11T07:31:24;38.88;;;24.25;;
22490;SDS011;11412;50.802;4.350;2022-09-11T07:33:53;40.85;;;23.92;;
22490;SDS011;11412;50.802;4.350;2022-09-11T07:36:20;40.50;;;24.08;;
22490;SDS011;11412;50.802;4.350;2022-09-11T07:38:48;32.17;;;23.40;;
22490;SDS011;11412;50.802;4.350;2022-09-11T07:41:15;32.75;;;24.50;;
22490;SDS011;11412;50.802;4.350;2022-09-11T07:43:42;30.60;;;24.92;;
22490;SDS011;11412;50.802;4.350;2022-09-11T07:46:15;45.78;;;24.13;;
22490;SDS011;11412;50.802;4.350;2022-09-11T07:48:41;39.28;;;24.00;;
22490;SDS011;11412;50.802;4.350;2022-09-11T07:51:08;29.65;;;24.80;;
22490;SDS011;11412;50.802;4.350;2022-09-11T07:53:45;29.95;;;24.42;;
22490;SDS011;11412;50.802;4.350;2022-09-11T07:56:13;35.53;;;23.95;;
22490;SDS011;11412;50.802;4.350;2022-09-11T07:58:48;26.17;;;23.25;;
22490;SDS011;11412;50.802;4.350;2022-09-11T08:01:16;34.63;;;23.85;;
22490;SDS011;11412;50.802;4.350;2022-09-11T08:03:43;29.25;;;23.75;;
22490;SDS011;11412;50.802;4.350;2022-09-11T08:06:14;29.58;;;22.73;;
22490;SDS011;11412;50.802;4.350;2022-09-11T08:08:41;30.48;;;24.30;;
22490;SDS011;11412;50.802;4.350;2022-09-11T08:11:12;29.08;;;24.25;;
22490;SDS011;11412;50.802;4.350;2022-09-11T08:13:40;29.33;;;24.33;;
22490;SDS011;11412;50.802;4.350;2022-09-11T08:16:06;30.92;;;23.83;;
22490;SDS011;11412;50.802;4.350;2022-09-11T08:18:32;30.63;;;25.77;;
22490;SDS011;11412;50.802;4.350;2022-09-11T08:21:04;33.22;;;26.48;;
22490;SDS011;11412;50.802;4.350;2022-09-11T08:23:35;30.65;;;26.08;;
22490;SDS011;11412;50.802;4.350;2022-09-11T08:26:05;30.48;;;25.45;;
22490;SDS011;11412;50.802;4.350;2022-09-11T08:28:32;31.15;;;26.20;;
22490;SDS011;11412;50.802;4.350;2022-09-11T08:30:59;38.88;;;25.77;;
22490;SDS011;11412;50.802;4.350;2022-09-11T08:33:26;30.77;;;25.25;;
22490;SDS011;11412;50.802;4.350;2022-09-11T08:35:52;32.17;;;25.08;;
22490;SDS011;11412;50.802;4.350;2022-09-11T08:38:18;31.63;;;25.60;;
22490;SDS011;11412;50.802;4.350;2022-09-11T08:40:44;33.13;;;27.35;;
22490;SDS011;11412;50.802;4.350;2022-09-11T08:43:21;34.50;;;27.27;;
22490;SDS011;11412;50.802;4.350;2022-09-11T08:45:50;36.63;;;26.70;;
22490;SDS011;11412;50.802;4.350;2022-09-11T08:48:22;35.53;;;26.95;;
22490;SDS011;11412;50.802;4.350;2022-09-11T08:51:13;31.75;;;25.45;;
22490;SDS011;11412;50.802;4.350;2022-09-11T08:53:41;35.35;;;26.60;;
22490;SDS011;11412;50.802;4.350;2022-09-11T08:56:18;35.63;;;27.67;;
22490;SDS011;11412;50.802;4.350;2022-09-11T09:07:42;33.72;;;25.95;;
22490;SDS011;11412;50.802;4.350;2022-09-11T09:15:16;33.03;;;25.50;;
22490;SDS011;11412;50.802;4.350;2022-09-11T09:18:23;31.88;;;25.60;;
22490;SDS011;11412;50.802;4.350;2022-09-11T09:23:31;35.63;;;26.55;;
22490;SDS011;11412;50.802;4.350;2022-09-11T09:26:03;35.83;;;25.38;;
22490;SDS011;11412;50.802;4.350;2022-09-11T09:28:32;35.00;;;24.70;;
22490;SDS011;11412;50.802;4.350;2022-09-11T09:31:03;33.47;;;25.48;;
22490;SDS011;11412;50.802;4.350;2022-09-11T09:36:19;32.05;;;25.88;;
22490;SDS011;11412;50.802;4.350;2022-09-11T09:38:47;32.47;;;24.75;;
22490;SDS011;11412;50.802;4.350;2022-09-11T09:44:02;33.38;;;24.52;;
22490;SDS011;11412;50.802;4.350;2022-09-11T09:46:45;31.95;;;23.98;;
22490;SDS011;11412;50.802;4.350;2022-09-11T09:49:21;34.58;;;25.35;;
22490;SDS011;11412;50.802;4.350;2022-09-11T09:51:52;29.23;;;23.00;;
22490;SDS011;11412;50.802;4.350;2022-09-11T09:54:19;28.90;;;23.27;;
22490;SDS011;11412;50.802;4.350;2022-09-11T09:57:00;28.42;;;23.45;;
22490;SDS011;11412;50.802;4.350;2022-09-11T09:59:40;28.88;;;22.55;;
22490;SDS011;11412;50.802;4.350;2022-09-11T10:02:10;27.77;;;23.30;;
22490;SDS011;11412;50.802;4.350;2022-09-11T10:04:36;27.23;;;21.55;;
22490;SDS011;11412;50.802;4.350;2022-09-11T10:07:06;28.95;;;23.75;;
22490;SDS011;11412;50.802;4.350;2022-09-11T10:09:44;25.63;;;21.73;;
22490;SDS011;11412;50.802;4.350;2022-09-11T10:12:14;29.20;;;22.20;;
22490;SDS011;11412;50.802;4.350;2022-09-11T10:14:51;27.65;;;21.73;;
22490;SDS011;11412;50.802;4.350;2022-09-11T10:17:21;23.58;;;20.92;;
22490;SDS011;11412;50.802;4.350;2022-09-11T10:19:54;25.98;;;22.08;;
22490;SDS011;11412;50.802;4.350;2022-09-11T10:22:36;27.83;;;23.13;;
22490;SDS011;11412;50.802;4.350;2022-09-11T10:27:32;24.23;;;21.40;;
22490;SDS011;11412;50.802;4.350;2022-09-11T10:30:03;25.60;;;21.52;;
22490;SDS011;11412;50.802;4.350;2022-09-11T10:32:29;25.15;;;20.80;;
22490;SDS011;11412;50.802;4.350;2022-09-11T10:34:56;24.85;;;20.95;;
22490;SDS011;11412;50.802;4.350;2022-09-11T10:37:24;22.10;;;19.40;;
22490;SDS011;11412;50.802;4.350;2022-09-11T10:39:54;24.25;;;18.52;;
22490;SDS011;11412;50.802;4.350;2022-09-11T10:42:29;21.20;;;17.50;;
22490;SDS011;11412;50.802;4.350;2022-09-11T10:44:59;21.25;;;17.00;;
22490;SDS011;11412;50.802;4.350;2022-09-11T10:47:41;15.70;;;14.10;;
22490;SDS011;11412;50.802;4.350;2022-09-11T10:55:27;13.15;;;11.80;;
22490;SDS011;11412;50.802;4.350;2022-09-11T10:58:04;12.45;;;10.95;;
22490;SDS011;11412;50.802;4.350;2022-09-11T11:00:43;12.00;;;10.80;;
22490;SDS011;11412;50.802;4.350;2022-09-11T11:03:15;12.57;;;11.02;;
22490;SDS011;11412;50.802;4.350;2022-09-11T11:08:35;8.95;;;8.05;;
22490;SDS011;11412;50.802;4.350;2022-09-11T11:16:55;9.93;;;7.45;;
22490;SDS011;11412;50.802;4.350;2022-09-11T11:25:05;9.50;;;8.60;;
22490;SDS011;11412;50.802;4.350;2022-09-11T11:36:27;6.85;;;6.25;;
22490;SDS011;11412;50.802;4.350;2022-09-11T11:39:24;6.53;;;4.85;;
22490;SDS011;11412;50.802;4.350;2022-09-11T11:41:58;7.85;;;5.70;;
22490;SDS011;11412;50.802;4.350;2022-09-11T11:47:15;7.10;;;6.40;;
22490;SDS011;11412;50.802;4.350;2022-09-11T11:52:41;7.35;;;5.82;;
22490;SDS011;11412;50.802;4.350;2022-09-11T11:55:24;7.57;;;5.20;;
22490;SDS011;11412;50.802;4.350;2022-09-11T12:00:29;5.65;;;5.03;;
22490;SDS011;11412;50.802;4.350;2022-09-11T12:03:08;4.80;;;4.40;;
22490;SDS011;11412;50.802;4.350;2022-09-11T12:05:47;4.82;;;4.32;;
22490;SDS011;11412;50.802;4.350;2022-09-11T12:08:13;4.57;;;4.18;;
22490;SDS011;11412;50.802;4.350;2022-09-11T12:10:41;4.72;;;4.18;;
22490;SDS011;11412;50.802;4.350;2022-09-11T12:13:16;5.80;;;5.20;;
22490;SDS011;11412;50.802;4.350;2022-09-11T12:15:59;4.78;;;4.40;;
22490;SDS011;11412;50.802;4.350;2022-09-11T12:18:29;5.10;;;4.72;;
22490;SDS011;11412;50.802;4.350;2022-09-11T12:28:42;7.43;;;4.55;;
22490;SDS011;11412;50.802;4.350;2022-09-11T12:31:09;3.45;;;3.25;;
22490;SDS011;11412;50.802;4.350;2022-09-11T12:36:05;3.88;;;3.67;;
22490;SDS011;11412;50.802;4.350;2022-09-11T12:38:40;4.25;;;3.50;;
22490;SDS011;11412;50.802;4.350;2022-09-11T12:41:14;4.13;;;3.30;;
22490;SDS011;11412;50.802;4.350;2022-09-11T12:43:46;5.25;;;3.20;;
22490;SDS011;11412;50.802;4.350;2022-09-11T12:48:49;3.05;;;2.80;;
22490;SDS011;11412;50.802;4.350;2022-09-11T12:51:25;2.90;;;2.70;;
22490;SDS011;11412;50.802;4.350;2022-09-11T12:54:44;3.13;;;2.88;;
22490;SDS011;11412;50.802;4.350;2022-09-11T12:57:07;3.05;;;2.85;;
22490;SDS011;11412;50.802;4.350;2022-09-11T12:59:50;3.33;;;3.13;;
22490;SDS011;11412;50.802;4.350;2022-09-11T13:02:36;3.35;;;3.05;;
22490;SDS011;11412;50.802;4.350;2022-09-11T13:05:18;4.63;;;3.05;;
22490;SDS011;11412;50.802;4.350;2022-09-11T13:07:52;3.30;;;3.05;;
22490;SDS011;11412;50.802;4.350;2022-09-11T13:10:42;2.83;;;2.72;;
22490;SDS011;11412;50.802;4.350;2022-09-11T13:16:15;3.33;;;3.13;;
22490;SDS011;11412;50.802;4.350;2022-09-11T13:18:48;3.00;;;2.80;;
22490;SDS011;11412;50.802;4.350;2022-09-11T13:21:14;3.08;;;2.88;;
22490;SDS011;11412;50.802;4.350;2022-09-11T13:23:43;3.08;;;2.90;;
22490;SDS011;11412;50.802;4.350;2022-09-11T13:26:28;2.60;;;2.40;;
22490;SDS011;11412;50.802;4.350;2022-09-11T13:31:28;2.67;;;2.40;;
22490;SDS011;11412;50.802;4.350;2022-09-11T13:34:00;3.10;;;2.47;;
22490;SDS011;11412;50.802;4.350;2022-09-11T13:36:28;4.05;;;3.15;;
22490;SDS011;11412;50.802;4.350;2022-09-11T13:38:56;2.35;;;2.25;;
22490;SDS011;11412;50.802;4.350;2022-09-11T13:41:27;2.20;;;2.10;;
22490;SDS011;11412;50.802;4.350;2022-09-11T13:43:57;2.90;;;2.70;;
22490;SDS011;11412;50.802;4.350;2022-09-11T13:46:25;3.03;;;2.50;;
22490;SDS011;11412;50.802;4.350;2022-09-11T13:48:55;2.92;;;2.72;;
22490;SDS011;11412;50.802;4.350;2022-09-11T13:51:34;2.67;;;2.53;;
22490;SDS011;11412;50.802;4.350;2022-09-11T13:59:25;2.55;;;2.45;;
22490;SDS011;11412;50.802;4.350;2022-09-11T14:04:51;3.75;;;2.65;;
22490;SDS011;11412;50.802;4.350;2022-09-11T14:07:20;3.45;;;2.40;;
22490;SDS011;11412;50.802;4.350;2022-09-11T14:10:05;2.60;;;2.40;;
22490;SDS011;11412;50.802;4.350;2022-09-11T14:12:45;3.38;;;2.30;;
22490;SDS011;11412;50.802;4.350;2022-09-11T14:15:19;4.63;;;2.40;;
22490;SDS011;11412;50.802;4.350;2022-09-11T14:18:12;2.40;;;2.20;;
22490;SDS011;11412;50.802;4.350;2022-09-11T14:20:44;3.78;;;2.15;;
22490;SDS011;11412;50.802;4.350;2022-09-11T14:23:15;2.55;;;2.35;;
22490;SDS011;11412;50.802;4.350;2022-09-11T14:26:07;2.40;;;2.30;;
22490;SDS011;11412;50.802;4.350;2022-09-11T14:28:46;2.40;;;2.22;;
22490;SDS011;11412;50.802;4.350;2022-09-11T14:31:40;2.40;;;2.20;;
22490;SDS011;11412;50.802;4.350;2022-09-11T14:34:18;2.22;;;2.00;;
22490;SDS011;11412;50.802;4.350;2022-09-11T14:37:04;1.77;;;1.67;;
22490;SDS011;11412;50.802;4.350;2022-09-11T14:39:37;1.70;;;1.60;;
22490;SDS011;11412;50.802;4.350;2022-09-11T14:42:47;3.35;;;1.52;;
22490;SDS011;11412;50.802;4.350;2022-09-11T14:44:55;2.13;;;1.92;;
22490;SDS011;11412;50.802;4.350;2022-09-11T14:47:25;2.15;;;1.63;;
22490;SDS011;11412;50.802;4.350;2022-09-11T14:49:52;1.77;;;1.67;;
22490;SDS011;11412;50.802;4.350;2022-09-11T14:52:24;1.40;;;1.30;;
22490;SDS011;11412;50.802;4.350;2022-09-11T14:54:52;1.52;;;1.42;;
22490;SDS011;11412;50.802;4.350;2022-09-11T14:57:22;1.73;;;1.60;;
22490;SDS011;11412;50.802;4.350;2022-09-11T14:59:56;1.85;;;1.75;;
22490;SDS011;11412;50.802;4.350;2022-09-11T15:02:24;1.40;;;1.30;;
22490;SDS011;11412;50.802;4.350;2022-09-11T15:04:51;1.50;;;1.40;;
22490;SDS011;11412;50.802;4.350;2022-09-11T15:07:19;5.20;;;1.60;;
22490;SDS011;11412;50.802;4.350;2022-09-11T15:09:49;1.73;;;1.52;;
22490;SDS011;11412;50.802;4.350;2022-09-11T15:12:15;1.80;;;1.70;;
22490;SDS011;11412;50.802;4.350;2022-09-11T15:14:41;2.05;;;1.67;;
22490;SDS011;11412;50.802;4.350;2022-09-11T15:17:11;1.38;;;1.30;;
22490;SDS011;11412;50.802;4.350;2022-09-11T15:19:40;1.40;;;1.20;;
22490;SDS011;11412;50.802;4.350;2022-09-11T15:22:06;1.35;;;1.30;;
22490;SDS011;11412;50.802;4.350;2022-09-11T15:24:32;1.35;;;1.35;;
22490;SDS011;11412;50.802;4.350;2022-09-11T15:26:58;1.25;;;1.25;;
22490;SDS011;11412;50.802;4.350;2022-09-11T15:29:25;1.38;;;1.27;;
22490;SDS011;11412;50.802;4.350;2022-09-11T15:31:51;2.95;;;1.30;;
22490;SDS011;11412;50.802;4.350;2022-09-11T15:34:20;1.25;;;1.10;;
22490;SDS011;11412;50.802;4.350;2022-09-11T15:36:46;1.08;;;1.00;;
22490;SDS011;11412;50.802;4.350;2022-09-11T15:39:16;1.13;;;1.10;;
22490;SDS011;11412;50.802;4.350;2022-09-11T15:41:43;1.20;;;1.20;;
22490;SDS011;11412;50.802;4.350;2022-09-11T15:44:12;2.00;;;1.02;;
22490;SDS011;11412;50.802;4.350;2022-09-11T15:46:59;2.13;;;1.10;;
22490;SDS011;11412;50.802;4.350;2022-09-11T15:49:25;1.35;;;1.15;;
22490;SDS011;11412;50.802;4.350;2022-09-11T15:51:55;1.45;;;1.05;;
22490;SDS011;11412;50.802;4.350;2022-09-11T15:54:22;1.48;;;1.00;;
22490;SDS011;11412;50.802;4.350;2022-09-11T15:56:48;1.88;;;1.35;;
22490;SDS011;11412;50.802;4.350;2022-09-11T15:59:15;2.63;;;0.90;;
22490;SDS011;11412;50.802;4.350;2022-09-11T16:01:41;1.17;;;0.98;;
22490;SDS011;11412;50.802;4.350;2022-09-11T16:04:08;2.28;;;1.00;;
22490;SDS011;11412;50.802;4.350;2022-09-11T16:06:37;1.17;;;0.90;;
22490;SDS011;11412;50.802;4.350;2022-09-11T16:09:09;1.25;;;1.10;;
22490;SDS011;11412;50.802;4.350;2022-09-11T16:11:37;1.20;;;1.20;;
22490;SDS011;11412;50.802;4.350;2022-09-11T16:14:05;2.05;;;1.30;;
22490;SDS011;11412;50.802;4.350;2022-09-11T16:16:31;1.08;;;0.98;;
22490;SDS011;11412;50.802;4.350;2022-09-11T16:18:57;1.10;;;1.10;;
22490;SDS011;11412;50.802;4.350;2022-09-11T16:21:25;1.40;;;0.93;;
22490;SDS011;11412;50.802;4.350;2022-09-11T16:23:52;1.38;;;1.20;;
22490;SDS011;11412;50.802;4.350;2022-09-11T16:26:19;1.17;;;1.08;;
22490;SDS011;11412;50.802;4.350;2022-09-11T16:28:48;1.45;;;1.35;;
22490;SDS011;11412;50.802;4.350;2022-09-11T16:31:14;1.67;;;1.20;;
22490;SDS011;11412;50.802;4.350;2022-09-11T16:33:41;3.38;;;1.02;;
22490;SDS011;11412;50.802;4.350;2022-09-11T16:36:13;1.20;;;1.10;;
22490;SDS011;11412;50.802;4.350;2022-09-11T16:38:44;1.10;;;1.00;;
22490;SDS011;11412;50.802;4.350;2022-09-11T16:41:11;2.25;;;1.30;;
22490;SDS011;11412;50.802;4.350;2022-09-11T16:43:43;1.30;;;1.23;;
22490;SDS011;11412;50.802;4.350;2022-09-11T16:46:14;1.23;;;1.13;;
22490;SDS011;11412;50.802;4.350;2022-09-11T16:48:48;1.10;;;1.10;;
22490;SDS011;11412;50.802;4.350;2022-09-11T16:51:15;2.25;;;1.10;;
22490;SDS011;11412;50.802;4.350;2022-09-11T16:53:45;1.50;;;1.40;;